< < Back
Terminal Aerodrome Forecast


Current Version              Previous Versions:   1  2  3  4  5  6  7  8  9  

Terminal Aerodrome Forecast

596
FTUS42 KJAX 011547 AAB
TAFJAX
TAF AMD
KJAX 011547Z 0116/0212 25008KT P6SM VCTS SCT025 BKN050CB
      TEMPO 0117/0119 VRB20G30KT 2SM TSRA BKN020CB
     FM012200 22005KT P6SM VCSH SCT040 BKN250
     FM020000 VRB04KT P6SM SCT100 BKN250=

Latest METAR

629
SAUS80 KWBC 020300 RRA
MTRJAX
METAR KJAX 020256Z 19007KT 10SM FEW150 BKN250 27/24 A3004 RMK AO2 SLP172
T02670244 53009


USA.gov is the U.S. government's official web portal to all federal, state and local government web resources and services.